Cache Creek, Canada
Current Conditions -  °F | °C
As of 2:00 PM on Thursday 18 Dec 2014 (Local Time) from CYIN Reporting Station
Broken Clouds Broken Clouds  
Wind Chill: 18°   Ceiling: 5500
Heat Index: 28°   Visibility: 9mi
Dew Point: 28°   Wind: 13mph
Humidity: 100%   Direction: 140°SE
Pressure: 29.69"   Gusts: 20mph
Location:  50.8°N, 121.32°W
Report Text: CYIN 182200Z AUTO 14011G17KT 9SM SCT005 BKN055 BKN077 M02/M02 A2969 RMK SLP090
Loading
Personal Weather Stations






























Interactive Weather Map New forecast layout! Learn more

10-Day Weather Forecast

Advertisements
Track Severe Weather on mobile